Saint Francis, KS

11:31 AM CDT on September 27, 2016 (GMT -0500)
Cheyenne County Municipal

Weather History for KSYF - April, 2014

Change the Weather History Date:

Monday, April 28, 2014

  Actual Average Record
Temperature  
Mean Temperature 47 °F -  
Max Temperature 56 °F 68 °F 88 °F (2013)
Min Temperature 38 °F 37 °F 34 °F (2016)
Degree Days  
Heating Degree Days 18    
Moisture  
Dew Point 28 °F    
Average Humidity 53    
Maximum Humidity 86    
Minimum Humidity 23    
Precipitation  
Precipitation 0.00 in - - ()
Sea Level Pressure  
Sea Level Pressure 29.60 in    
Wind  
Wind Speed 25 mph (NW)    
Max Wind Speed 40 mph    
Max Gust Speed 55 mph    
Visibility 10 miles    
Events Rain    
Averages and records for this station are not official NWS values.
T = Trace of Precipitation, MM = Missing Value Source: NWS Daily Summary

Daily Weather History Graph

Daily Weather History Graph

Search for Another Location

Airport or City:

Trip Planner

Search our weather history database for the weather conditions in past years. The results will help you decide how hot, cold, wet, or windy it might be!

Date:

Astronomy

Apr. 28, 2014 Rise Set
Actual Time 6:51 AM CDT 8:38 PM CDT
Civil Twilight 6:22 AM CDT 9:07 PM CDT
Nautical Twilight 5:47 AM CDT 9:42 PM CDT
Astronomical Twilight 5:09 AM CDT 10:20 PM CDT
Moon 6:30 AM CDT (4/28) 8:18 PM CDT (4/28)
Length of Visible Light 14h 45m
Length of Day
13h 47m
Waning Crescent, 0% of the Moon is Illuminated
Apr 28
Waning Crescent
Apr 29
New
May 6
First Quarter
May 14
Full
May 21
Last Quarter

Hourly Weather History & Observations

Time (CDT) Temp. Windchill Dew Point Humidity Pressure Visibility Wind Dir Wind Speed Gust Speed Precip Events Conditions
12:15 AM 39.2 °F 29.3 °F 34.9 °F 84% 29.50 in 10.0 mi NW 20.7 mph 34.5 mph N/A   Light Drizzle
12:35 AM 38.8 °F 28.3 °F 34.5 °F 84% 29.50 in 10.0 mi NW 23.0 mph 29.9 mph N/A   Drizzle
12:55 AM 38.7 °F 28.0 °F 34.7 °F 86% 29.51 in 7.0 mi NW 23.0 mph 31.1 mph N/A Rain Rain
1:15 AM 39.2 °F 29.3 °F 35.2 °F 86% 29.51 in 10.0 mi NW 20.7 mph 29.9 mph N/A Rain Rain
1:35 AM 39.7 °F 29.0 °F 35.2 °F 84% 29.51 in 10.0 mi NW 25.3 mph 34.5 mph N/A Rain Light Rain
1:55 AM 39.9 °F 30.0 °F 35.2 °F 83% 29.51 in 10.0 mi NW 21.9 mph 32.2 mph N/A Rain Light Rain
2:15 AM 39.6 °F 29.5 °F 34.7 °F 83% 29.51 in 10.0 mi NW 21.9 mph 32.2 mph N/A Rain Light Rain
2:35 AM 39.7 °F 31.2 °F 35.1 °F 83% 29.51 in 10.0 mi NW 16.1 mph 29.9 mph N/A   Overcast
2:55 AM 40.3 °F 31.9 °F 35.2 °F 82% 29.50 in 10.0 mi NW 16.1 mph 24.2 mph N/A   Overcast
3:15 AM 41.4 °F 31.9 °F 34.7 °F 77% 29.50 in 10.0 mi NW 21.9 mph 32.2 mph N/A   Light Drizzle
3:35 AM 41.5 °F 32.1 °F 35.4 °F 79% 29.50 in 10.0 mi NW 21.9 mph 26.5 mph N/A   Light Drizzle
3:55 AM 41.5 °F 33.8 °F 35.6 °F 79% 29.50 in 10.0 mi NW 15.0 mph 24.2 mph N/A   Overcast
4:15 AM 41.9 °F 34.0 °F 35.6 °F 78% 29.50 in 10.0 mi NW 16.1 mph 21.9 mph N/A   Overcast
4:35 AM 42.1 °F 33.1 °F 35.1 °F 76% 29.50 in 10.0 mi NW 20.7 mph 33.4 mph N/A   Overcast
4:55 AM 42.3 °F 32.4 °F 34.5 °F 74% 29.51 in 10.0 mi NW 25.3 mph 34.5 mph N/A   Overcast
5:15 AM 41.9 °F 32.3 °F 34.2 °F 74% 29.51 in 10.0 mi NNW 23.0 mph 38.0 mph N/A   Overcast
5:35 AM 41.0 °F 30.7 °F 33.8 °F 76% 29.51 in 10.0 mi NW 25.3 mph 34.5 mph N/A   Overcast
5:55 AM 40.5 °F 31.5 °F 33.6 °F 77% 29.51 in 10.0 mi NNW 18.4 mph 26.5 mph N/A   Overcast
6:15 AM 40.1 °F 32.0 °F 34.0 °F 79% 29.51 in 10.0 mi NW 15.0 mph - N/A   Overcast
6:35 AM 40.5 °F 32.1 °F 34.7 °F 80% 29.52 in 10.0 mi NW 16.1 mph 23.0 mph N/A   Overcast
6:55 AM 41.0 °F 31.9 °F 34.9 °F 79% 29.52 in 10.0 mi WNW 19.6 mph 25.3 mph N/A   Overcast
7:15 AM 41.9 °F 32.8 °F 34.7 °F 76% 29.52 in 10.0 mi WNW 20.7 mph 29.9 mph N/A   Overcast
7:35 AM 43.5 °F 34.3 °F 33.1 °F 67% 29.53 in 10.0 mi NW 24.2 mph 36.8 mph N/A   Overcast
7:55 AM 43.9 °F 34.1 °F 32.2 °F 63% 29.53 in 10.0 mi NW 27.6 mph 34.5 mph N/A   Overcast
8:15 AM 44.2 °F 35.2 °F 32.0 °F 62% 29.54 in 10.0 mi NW 24.2 mph 40.3 mph N/A   Overcast
8:55 AM 45.0 °F 36.2 °F 31.8 °F 60% 29.55 in 10.0 mi NW 24.2 mph 40.3 mph N/A   Overcast
9:15 AM 45.1 °F 36.4 °F 32.0 °F 60% 29.55 in 10.0 mi NW 24.2 mph 34.5 mph N/A   Overcast
9:35 AM 45.7 °F 37.4 °F 30.7 °F 56% 29.56 in 10.0 mi NW 23.0 mph 35.7 mph N/A   Overcast
9:55 AM 46.4 °F 38.1 °F 29.8 °F 53% 29.56 in 10.0 mi NW 24.2 mph 41.4 mph N/A   Overcast
10:15 AM 48.0 °F - 29.5 °F 49% 29.56 in 10.0 mi NW 28.8 mph 39.1 mph N/A   Overcast
10:35 AM 48.4 °F - 29.1 °F 47% 29.57 in 10.0 mi NW 23.0 mph 42.6 mph N/A   Mostly Cloudy
11:15 AM 50.0 °F - 28.4 °F 43% 29.57 in 10.0 mi NW 28.8 mph 39.1 mph N/A   Mostly Cloudy
11:35 AM 50.7 °F - 28.0 °F 42% 29.57 in 10.0 mi NW 25.3 mph 38.0 mph N/A   Mostly Cloudy
12:15 PM 54.5 °F - 22.5 °F 29% 29.58 in 10.0 mi NNW 36.8 mph 46.0 mph N/A   Clear
12:35 PM 53.8 °F - 21.0 °F 28% 29.58 in 10.0 mi NW 36.8 mph 48.3 mph N/A   Scattered Clouds
12:55 PM 54.0 °F - 21.2 °F 28% 29.58 in 10.0 mi NNW 35.7 mph 43.7 mph N/A   Mostly Cloudy
1:15 PM 54.7 °F - 19.2 °F 25% 29.58 in 10.0 mi NW 35.7 mph 46.0 mph N/A   Mostly Cloudy
1:35 PM 56.3 °F - 18.5 °F 23% 29.57 in 10.0 mi NNW 40.3 mph 48.3 mph N/A   Mostly Cloudy
1:55 PM 54.9 °F - 19.2 °F 25% 29.58 in 10.0 mi NNW 29.9 mph 49.5 mph N/A   Mostly Cloudy
2:15 PM 55.0 °F - 19.2 °F 25% 29.58 in 10.0 mi NNW 34.5 mph 48.3 mph N/A   Mostly Cloudy
2:35 PM 56.1 °F - 19.4 °F 24% 29.59 in 10.0 mi NNW 36.8 mph 50.6 mph N/A   Mostly Cloudy
2:55 PM 55.0 °F - 19.2 °F 25% 29.59 in 10.0 mi NNW 35.7 mph 48.3 mph N/A   Mostly Cloudy
3:15 PM 55.2 °F - 19.2 °F 25% 29.60 in 10.0 mi NNW 29.9 mph 55.2 mph N/A   Mostly Cloudy
3:35 PM 54.7 °F - 21.4 °F 27% 29.61 in 10.0 mi NNW 32.2 mph 51.8 mph N/A   Scattered Clouds
4:15 PM 55.6 °F - 21.7 °F 27% 29.61 in 10.0 mi NW 34.5 mph 48.3 mph N/A   Scattered Clouds
4:35 PM 54.7 °F - 22.5 °F 29% 29.62 in 10.0 mi NW 29.9 mph 48.3 mph N/A   Scattered Clouds
4:55 PM 54.1 °F - 23.4 °F 30% 29.63 in 10.0 mi NW 29.9 mph 41.4 mph N/A   Scattered Clouds
5:15 PM 54.1 °F - 19.9 °F 26% 29.63 in 10.0 mi NW 36.8 mph 48.3 mph N/A   Scattered Clouds
5:35 PM 54.5 °F - 19.6 °F 26% 29.64 in 10.0 mi NNW 32.2 mph 44.9 mph N/A   Mostly Cloudy
5:55 PM 53.8 °F - 23.7 °F 31% 29.66 in 10.0 mi North 29.9 mph 41.4 mph N/A   Mostly Cloudy
6:15 PM 51.8 °F - 28.8 °F 41% 29.67 in 10.0 mi NNW 23.0 mph 38.0 mph N/A   Scattered Clouds
6:35 PM 51.8 °F - 27.0 °F 38% 29.67 in 10.0 mi NNW 33.4 mph 40.3 mph N/A   Scattered Clouds
6:55 PM 51.3 °F - 23.7 °F 34% 29.68 in 10.0 mi NNW 29.9 mph 43.7 mph N/A   Scattered Clouds
7:15 PM 50.9 °F - 25.5 °F 37% 29.69 in 10.0 mi NNW 31.1 mph 42.6 mph N/A   Mostly Cloudy
7:35 PM 49.8 °F - 28.0 °F 43% 29.70 in 10.0 mi NNW 31.1 mph 38.0 mph N/A   Overcast
7:55 PM 48.7 °F - 28.0 °F 45% 29.71 in 10.0 mi North 28.8 mph 40.3 mph N/A   Scattered Clouds
8:15 PM 47.8 °F - 27.9 °F 46% 29.72 in 10.0 mi NNW 27.6 mph 39.1 mph N/A   Mostly Cloudy
8:35 PM 47.7 °F - 26.6 °F 44% 29.73 in 10.0 mi NNW 31.1 mph 41.4 mph N/A   Mostly Cloudy
8:55 PM 47.5 °F - 26.6 °F 44% 29.74 in 10.0 mi NNW 28.8 mph 39.1 mph N/A   Scattered Clouds
9:15 PM 47.7 °F - 26.6 °F 44% 29.75 in 10.0 mi NNW 32.2 mph 42.6 mph N/A   Clear
9:55 PM 47.3 °F - 26.8 °F 45% 29.77 in 10.0 mi NNW 32.2 mph 49.5 mph N/A   Clear
10:15 PM 46.9 °F - 25.7 °F 44% 29.78 in 10.0 mi NNW 24.2 mph 38.0 mph N/A   Clear
10:35 PM 46.8 °F - 26.6 °F 45% 29.78 in 10.0 mi NNW 25.3 mph 38.0 mph N/A   Clear
10:55 PM 46.6 °F - 27.0 °F 46% 29.78 in 10.0 mi NNW 25.3 mph 34.5 mph N/A   Scattered Clouds
11:15 PM 46.6 °F - 26.1 °F 45% 29.78 in 10.0 mi NNW 26.5 mph 34.5 mph N/A   Mostly Cloudy
11:35 PM 46.4 °F 39.0 °F 25.9 °F 45% 29.78 in 10.0 mi NW 19.6 mph 32.2 mph N/A   Overcast
11:55 PM 46.4 °F 37.7 °F 26.6 °F 46% 29.79 in 10.0 mi NNW 26.5 mph 33.4 mph N/A   Overcast